MCO weather

Orlando International Airport
Orlando, Florida, United States

Public forecast

Using degrees Fahrenheit for public forecast. Weather courtesy of forecast.io.

METAR (pilot weather report)

Retrieved 2017/05/23 19:53 UTC (24 minutes ago):

KMCO 231953Z 24014G21KT 10SM SCT047CB SCT065 BKN220 32/19 A2983 RMK AO2 SLP101 CB W MOV NE T03220194

TAF (pilot weather forecast)

Retrieved 2017/05/23 18:27 UTC (2 hours ago):

TAF KMCO 231725Z 2318/2418 21013G22KT P6SM VCTS SCT040CB SCT120 BKN250 FM232300 22011KT P6SM SCT040 BKN250 FM241400 21015G23KT P6SM VCTS SCT020 SCT035CB BKN060 TEMPO 2414/2417 VRB15G30KT 2SM TSRA BKN015 BKN025CB